Time;durP1;ratioP1;P1;durP2;ratioP2;P2;SDS_P1;SDS_P2;PMS_P1;PMS_P2;Temp;Humidity;BMP_temperature;BMP_pressure;BME280_temperature;BME280_humidity;BME280_pressure;Samples;Min_cycle;Max_cycle;Signal;HPM_P1;HPM_P2
2023/08/09 00:00:47;;;;;;;4.32;2.65;;;;;;;16.91;68.36;98023.78;4982916;28;20026;-78
2023/08/09 00:03:13;;;;;;;4.45;3.35;;;;;;;16.59;69.47;97989.06;4984525;28;20034;-79
2023/08/09 00:05:38;;;;;;;3.60;2.60;;;;;;;16.69;69.52;98002.53;5000411;28;20029;-79
2023/08/09 00:08:04;;;;;;;3.72;3.10;;;;;;;16.58;70.93;97999.13;5002235;28;20053;-79
2023/08/09 00:10:29;;;;;;;6.60;3.17;;;;;;;16.56;71.56;98005.94;4968972;28;20022;-79
2023/08/09 00:12:54;;;;;;;5.78;3.50;;;;;;;16.74;71.68;98024.25;4985831;28;20396;-79
2023/08/09 00:15:20;;;;;;;5.38;3.55;;;;;;;16.65;72.48;98025.16;4984766;28;20028;-78
2023/08/09 00:17:45;;;;;;;6.45;3.70;;;;;;;16.53;72.53;98001.88;4968318;28;20107;-79
2023/08/09 00:20:14;;;;;;;9.18;4.28;;;;;;;16.50;73.49;98012.47;4968429;28;20053;-79
2023/08/09 00:22:40;;;;;;;7.90;3.72;;;;;;;16.50;73.98;98018.72;4984570;28;20041;-78
2023/08/09 00:25:07;;;;;;;6.00;3.88;;;;;;;16.31;75.33;98015.09;4982662;28;20123;-77
2023/08/09 00:27:32;;;;;;;7.25;4.00;;;;;;;16.26;74.90;97987.19;4982472;28;20038;-79
2023/08/09 00:29:58;;;;;;;8.18;4.50;;;;;;;16.19;76.19;97990.22;4966048;28;20512;-79
2023/08/09 00:32:23;;;;;;;5.15;4.18;;;;;;;16.18;76.41;98015.78;4982116;28;20046;-80
2023/08/09 00:34:49;;;;;;;5.82;4.57;;;;;;;16.03;78.15;98005.03;4980801;28;20028;-80
2023/08/09 00:37:14;;;;;;;7.70;4.72;;;;;;;16.00;79.40;98021.09;4981804;28;20045;-78
2023/08/09 00:39:40;;;;;;;10.95;5.25;;;;;;;15.73;79.60;97980.81;4981848;28;20021;-79
2023/08/09 00:42:05;;;;;;;9.05;5.22;;;;;;;15.64;79.97;97958.06;4965254;28;20100;-79
2023/08/09 00:44:31;;;;;;;8.10;5.13;;;;;;;15.92;80.64;98011.63;4998445;28;20727;-79
2023/08/09 00:46:57;;;;;;;8.90;5.40;;;;;;;15.81;81.11;97999.22;4998699;28;20045;-79
2023/08/09 00:49:23;;;;;;;9.90;6.13;;;;;;;15.97;81.50;98014.31;4981932;28;20026;-79
2023/08/09 00:51:48;;;;;;;8.52;6.05;;;;;;;15.51;81.68;97934.28;4980612;28;20076;-80
2023/08/09 00:54:14;;;;;;;8.70;5.97;;;;;;;15.66;81.88;97961.34;4964438;28;20028;-79
2023/08/09 00:56:40;;;;;;;9.00;6.40;;;;;;;15.79;82.04;97987.84;4997172;28;20377;-80
2023/08/09 00:59:06;;;;;;;11.73;7.25;;;;;;;15.84;82.45;97990.53;4980949;28;20033;-80
2023/08/09 01:01:31;;;;;;;10.75;7.20;;;;;;;15.78;82.82;97978.06;4980351;28;20042;-79
2023/08/09 01:03:56;;;;;;;12.15;6.38;;;;;;;15.76;82.83;97977.53;4964357;28;20129;-78
2023/08/09 01:06:38;;;;;;;8.45;6.72;;;;;;;15.89;83.17;97996.69;4981317;28;20049;-78
2023/08/09 01:09:15;;;;;;;9.32;6.47;;;;;;;15.54;83.26;97939.94;4997594;28;20077;-79
2023/08/09 01:11:48;;;;;;;12.48;7.47;;;;;;;15.74;83.69;97971.56;4970836;28;20026;-78
2023/08/09 01:14:14;;;;;;;9.98;7.53;;;;;;;15.76;83.47;97970.19;4987019;28;20509;-78
2023/08/09 01:16:40;;;;;;;10.30;7.45;;;;;;;15.75;84.19;97978.66;4984901;28;20028;-78
2023/08/09 01:19:11;;;;;;;9.43;7.80;;;;;;;15.71;84.22;97961.28;4986854;28;20076;-79
2023/08/09 01:21:38;;;;;;;11.50;8.20;;;;;;;15.82;84.65;97979.13;4982498;28;20033;-78
2023/08/09 01:24:05;;;;;;;13.07;8.50;;;;;;;15.59;84.43;97915.47;4982646;28;20088;-78
2023/08/09 01:26:31;;;;;;;12.32;7.95;;;;;;;15.26;84.71;97866.59;4983427;28;20128;-79
2023/08/09 01:28:56;;;;;;;12.50;8.18;;;;;;;15.61;84.93;97940.44;4982205;28;20057;-79
2023/08/09 01:31:21;;;;;;;13.32;9.07;;;;;;;15.59;85.01;97936.41;4982677;28;20037;-78
2023/08/09 01:33:47;;;;;;;11.57;9.75;;;;;;;15.77;85.04;97960.16;4965941;28;20026;-78
2023/08/09 01:36:20;;;;;;;18.30;9.88;;;;;;;15.66;85.01;97953.19;4981884;28;20030;-78
2023/08/09 01:38:54;;;;;;;13.88;9.95;;;;;;;15.72;85.24;97957.47;4980645;28;20038;-78
2023/08/09 01:41:21;;;;;;;12.25;10.23;;;;;;;15.78;85.20;97956.34;4965512;28;20042;-77
2023/08/09 01:43:46;;;;;;;14.80;10.23;;;;;;;15.62;85.44;97939.34;4980673;28;20053;-77
2023/08/09 01:46:12;;;;;;;14.23;10.32;;;;;;;15.60;86.05;97943.44;4997253;28;20041;-78
2023/08/09 01:48:38;;;;;;;14.35;10.02;;;;;;;15.57;86.01;97938.56;4980762;28;20117;-78
2023/08/09 01:51:03;;;;;;;14.90;10.77;;;;;;;15.55;86.30;97940.75;4996809;28;20033;-78
2023/08/09 01:53:29;;;;;;;11.98;8.57;;;;;;;15.52;85.73;97920.41;4980188;28;20032;-77
2023/08/09 01:55:55;;;;;;;14.68;10.43;;;;;;;15.71;86.20;97944.97;4980727;28;20038;-77
2023/08/09 01:58:20;;;;;;;16.48;10.73;;;;;;;15.41;86.59;97902.56;4967606;28;20033;-78
2023/08/09 02:00:46;;;;;;;12.65;9.05;;;;;;;15.66;86.79;97951.25;4967309;28;20038;-79
2023/08/09 02:03:12;;;;;;;16.75;11.57;;;;;;;15.55;86.60;97929.91;4964066;28;20049;-79
2023/08/09 02:05:38;;;;;;;13.82;10.30;;;;;;;15.33;86.93;97905.06;4964024;28;20034;-78
2023/08/09 02:08:04;;;;;;;11.55;9.05;;;;;;;15.50;86.76;97921.78;4967067;28;20022;-79
2023/08/09 02:10:30;;;;;;;13.23;10.82;;;;;;;15.49;87.33;97914.75;4999785;28;20042;-79
2023/08/09 02:12:55;;;;;;;15.32;10.50;;;;;;;15.44;87.86;97936.47;4984489;28;20018;-78
2023/08/09 02:15:21;;;;;;;13.55;10.80;;;;;;;15.42;87.77;97925.09;4985234;28;20044;-78
2023/08/09 02:17:48;;;;;;;13.25;9.75;;;;;;;15.48;88.13;97935.66;4982631;28;20093;-78
2023/08/09 02:20:14;;;;;;;15.98;11.82;;;;;;;15.41;88.26;97920.75;4966177;28;20400;-78
2023/08/09 02:22:40;;;;;;;16.45;12.15;;;;;;;15.37;88.18;97908.84;4980136;28;20022;-78
2023/08/09 02:25:07;;;;;;;19.42;12.85;;;;;;;15.46;88.49;97924.28;4964393;28;20482;-77
2023/08/09 02:27:33;;;;;;;14.52;11.40;;;;;;;15.35;88.69;97913.75;4979655;28;20022;-78
2023/08/09 02:30:03;;;;;;;13.57;10.27;;;;;;;15.47;87.98;97904.19;4980246;28;20548;-77
2023/08/09 02:32:30;;;;;;;16.40;10.38;;;;;;;15.35;88.06;97886.59;4980293;28;20030;-77
2023/08/09 02:34:55;;;;;;;14.88;11.02;;;;;;;15.39;87.76;97903.94;4980519;28;20029;-78
2023/08/09 02:37:22;;;;;;;14.55;11.55;;;;;;;15.21;88.64;97887.25;4980441;28;20057;-78
2023/08/09 02:39:47;;;;;;;14.38;11.20;;;;;;;15.37;88.96;97927.84;5013723;28;20037;-78
2023/08/09 02:42:13;;;;;;;14.02;11.25;;;;;;;15.18;88.94;97904.09;4978577;28;20089;-77
2023/08/09 02:44:39;;;;;;;13.50;12.07;;;;;;;15.32;88.88;97919.72;4965508;28;20049;-77
2023/08/09 02:47:05;;;;;;;14.50;11.35;;;;;;;14.91;88.99;97871.13;4978845;28;20025;-77
2023/08/09 02:49:31;;;;;;;15.80;12.27;;;;;;;15.28;88.74;97908.63;4978538;28;20431;-77
2023/08/09 02:51:56;;;;;;;15.20;12.00;;;;;;;15.41;88.61;97918.84;4994144;28;20057;-77
2023/08/09 02:54:22;;;;;;;19.27;13.10;;;;;;;15.47;89.13;97944.09;4994015;28;20025;-76
2023/08/09 02:56:47;;;;;;;21.27;13.57;;;;;;;15.44;88.87;97915.59;4963915;28;20034;-78
2023/08/09 02:59:13;;;;;;;18.77;12.98;;;;;;;15.37;88.74;97911.56;4998482;28;20029;-78
2023/08/09 03:01:38;;;;;;;18.52;13.85;;;;;;;15.35;89.01;97908.31;4982504;28;20495;-78
2023/08/09 03:04:03;;;;;;;17.15;12.80;;;;;;;15.21;89.73;97903.53;4997886;28;20097;-79
2023/08/09 03:06:30;;;;;;;17.08;13.02;;;;;;;15.24;89.13;97892.09;4982023;28;20041;-78
2023/08/09 03:08:55;;;;;;;17.38;13.52;;;;;;;14.85;89.28;97831.59;4998910;28;20028;-78
2023/08/09 03:11:24;;;;;;;19.42;13.20;;;;;;;15.53;89.31;97932.09;4965395;28;20041;-78
2023/08/09 03:13:50;;;;;;;15.90;13.98;;;;;;;15.46;89.56;97926.16;4981680;28;20089;-78
2023/08/09 03:16:16;;;;;;;20.80;13.63;;;;;;;15.43;89.43;97915.84;4965730;28;20034;-78
2023/08/09 03:18:42;;;;;;;16.83;12.20;;;;;;;15.49;89.27;97933.75;4980605;28;20592;-78
2023/08/09 03:21:08;;;;;;;22.85;13.77;;;;;;;15.35;89.43;97911.84;4997179;28;20045;-78
2023/08/09 03:23:34;;;;;;;17.77;13.23;;;;;;;15.32;89.37;97892.59;4981034;28;20036;-77
2023/08/09 03:26:00;;;;;;;16.80;13.88;;;;;;;15.25;89.82;97890.19;4982375;28;20048;-78
2023/08/09 03:28:27;;;;;;;17.00;11.85;;;;;;;15.40;89.49;97903.69;4983070;28;20057;-78
2023/08/09 03:30:53;;;;;;;21.90;14.13;;;;;;;15.43;89.44;97911.22;4982370;28;20034;-78
2023/08/09 03:33:18;;;;;;;18.52;13.27;;;;;;;15.41;89.78;97907.19;4965501;28;20033;-79
2023/08/09 03:35:44;;;;;;;17.55;13.43;;;;;;;14.67;89.45;97797.03;4978727;28;20037;-78
2023/08/09 03:38:10;;;;;;;17.38;13.25;;;;;;;15.27;89.94;97901.56;4980299;28;20026;-78
2023/08/09 03:40:35;;;;;;;17.20;12.00;;;;;;;15.28;90.00;97913.25;4983444;28;20034;-78
2023/08/09 03:43:02;;;;;;;16.05;12.45;;;;;;;15.46;90.27;97926.16;4982704;28;20392;-78
2023/08/09 03:45:27;;;;;;;17.73;13.05;;;;;;;15.28;90.02;97902.41;4983188;28;20030;-79
2023/08/09 03:47:54;;;;;;;15.30;12.32;;;;;;;15.19;90.08;97875.84;4970450;28;20505;-79
2023/08/09 03:58:09;;;;;;;14.38;12.05;;;;;;;14.38;90.63;97777.09;5011867;28;20053;-78
2023/08/09 04:00:34;;;;;;;15.88;11.20;;;;;;;14.94;90.65;97865.16;4969773;28;20035;-80
2023/08/09 04:03:00;;;;;;;14.70;11.70;;;;;;;15.30;90.64;97927.34;4985339;28;20088;-80
2023/08/09 04:05:25;;;;;;;14.32;11.52;;;;;;;15.17;90.74;97899.75;4986877;28;20038;-80
2023/08/09 04:07:50;;;;;;;18.38;12.63;;;;;;;15.32;90.68;97925.16;4981390;28;20033;-80
2023/08/09 04:10:17;;;;;;;13.02;9.38;;;;;;;15.33;90.58;97910.50;4972559;28;20168;-79
2023/08/09 04:12:42;;;;;;;14.88;10.88;;;;;;;15.36;90.74;97920.78;4985720;28;20500;-80
2023/08/09 04:15:08;;;;;;;13.55;11.30;;;;;;;15.36;90.89;97921.59;4984998;28;20088;-80
2023/08/09 04:17:33;;;;;;;12.50;10.18;;;;;;;15.35;91.04;97930.84;4982855;28;20383;-79
2023/08/09 04:19:59;;;;;;;15.05;11.93;;;;;;;15.22;91.11;97918.69;4966787;28;20038;-79
2023/08/09 04:22:25;;;;;;;14.32;11.00;;;;;;;15.15;91.00;97888.34;4967358;28;20369;-78
2023/08/09 04:24:51;;;;;;;17.13;11.98;;;;;;;15.42;91.05;97927.81;4983640;28;20084;-78
2023/08/09 04:27:16;;;;;;;15.20;11.48;;;;;;;15.31;90.80;97920.84;4967743;28;20649;-79
2023/08/09 04:29:42;;;;;;;14.88;11.02;;;;;;;15.23;90.93;97901.34;4983610;28;20044;-79
2023/08/09 04:32:07;;;;;;;13.45;10.70;;;;;;;15.10;91.10;97891.09;4983021;28;20061;-81
2023/08/09 04:34:33;;;;;;;15.57;11.30;;;;;;;15.38;90.75;97924.03;4999474;28;20053;-78
2023/08/09 04:36:59;;;;;;;19.10;12.98;;;;;;;14.98;90.20;97849.94;4967443;28;20144;-78
2023/08/09 04:39:24;;;;;;;17.08;12.18;;;;;;;15.58;90.30;97937.50;4999572;28;20048;-79
2023/08/09 04:41:50;;;;;;;114.40;74.20;;;;;;;15.35;90.42;97909.13;4982663;28;20038;-79
2023/08/09 04:44:16;;;;;;;32.72;21.85;;;;;;;15.42;90.75;97923.19;4967781;28;20118;-78
2023/08/09 04:46:41;;;;;;;28.40;18.67;;;;;;;15.56;90.49;97937.78;4982242;28;20797;-76
2023/08/09 04:49:07;;;;;;;132.50;74.80;;;;;;;15.57;90.40;97938.56;4973735;28;20037;-77
2023/08/09 04:51:32;;;;;;;24.65;16.52;;;;;;;15.52;90.49;97922.34;4988396;28;20477;-79
2023/08/09 04:53:58;;;;;;;22.83;15.45;;;;;;;15.64;90.45;97939.06;5001500;28;20026;-78
2023/08/09 04:56:23;;;;;;;46.15;28.05;;;;;;;15.56;90.46;97937.78;4971752;28;20037;-79
2023/08/09 04:58:49;;;;;;;53.75;31.20;;;;;;;15.45;90.55;97913.72;4999433;28;20099;-79
2023/08/09 05:01:14;;;;;;;23.27;15.02;;;;;;;15.44;90.20;97901.19;4987577;28;20076;-77
2023/08/09 05:03:40;;;;;;;16.75;12.50;;;;;;;15.43;90.71;97910.41;4968382;28;20034;-77
2023/08/09 05:06:05;;;;;;;18.75;12.18;;;;;;;15.55;90.65;97932.63;4981971;28;20041;-79
2023/08/09 05:08:31;;;;;;;16.17;12.05;;;;;;;15.37;89.97;97895.28;4976264;28;20034;-78
2023/08/09 05:10:56;;;;;;;11.68;9.35;;;;;;;15.51;90.80;97907.13;4999109;28;20125;-77
2023/08/09 05:13:21;;;;;;;19.90;12.98;;;;;;;15.51;90.98;97929.66;4982817;28;20034;-78
2023/08/09 05:15:47;;;;;;;14.55;10.88;;;;;;;15.38;91.12;97911.25;4963620;28;20105;-77
2023/08/09 05:18:12;;;;;;;9.95;8.95;;;;;;;15.46;90.92;97920.75;4983677;28;20045;-79
2023/08/09 05:20:38;;;;;;;18.23;11.45;;;;;;;15.56;91.30;97942.41;4983609;28;20025;-78
2023/08/09 05:23:03;;;;;;;13.07;10.68;;;;;;;15.03;91.21;97860.75;4983174;28;20674;-78
2023/08/09 05:25:29;;;;;;;14.40;10.70;;;;;;;15.51;91.28;97934.28;4998305;28;20026;-77
2023/08/09 05:27:55;;;;;;;18.63;12.20;;;;;;;15.47;90.89;97916.94;4982727;28;20037;-78
2023/08/09 05:30:22;;;;;;;13.98;10.38;;;;;;;15.52;90.77;97925.84;4966487;28;20025;-78
2023/08/09 05:32:47;;;;;;;14.52;11.45;;;;;;;15.69;90.50;97944.47;4998719;28;20045;-78
2023/08/09 05:35:13;;;;;;;16.58;10.80;;;;;;;15.50;90.66;97925.31;5016447;28;20022;-77
2023/08/09 05:37:39;;;;;;;12.43;10.48;;;;;;;15.60;90.87;97938.00;4982511;28;20042;-79
2023/08/09 05:40:14;;;;;;;13.38;9.20;;;;;;;15.71;90.85;97959.38;4966796;28;20030;-78
2023/08/09 05:42:40;;;;;;;14.52;9.90;;;;;;;15.59;90.90;97955.41;4967026;28;20045;-77
2023/08/09 05:45:06;;;;;;;12.30;8.25;;;;;;;15.58;91.00;97945.63;4998045;28;20018;-79
2023/08/09 05:47:31;;;;;;;9.63;7.65;;;;;;;15.56;91.52;97959.50;4997558;28;20084;-78
2023/08/09 05:49:57;;;;;;;9.43;8.05;;;;;;;15.67;90.84;97976.50;4967126;28;20034;-76
2023/08/09 05:52:22;;;;;;;13.13;9.27;;;;;;;15.69;90.50;97958.03;4995394;28;20060;-77
2023/08/09 05:54:48;;;;;;;14.63;8.50;;;;;;;15.73;90.77;97964.50;4997640;28;20441;-76
2023/08/09 05:57:14;;;;;;;10.90;8.93;;;;;;;15.78;90.35;97967.19;4998208;28;20053;-78
2023/08/09 05:59:39;;;;;;;16.92;9.27;;;;;;;15.64;90.35;97944.50;4981642;28;20025;-77
2023/08/09 06:02:06;;;;;;;11.68;8.85;;;;;;;15.84;90.58;97980.47;4981804;28;20087;-78
2023/08/09 06:04:32;;;;;;;12.23;9.18;;;;;;;15.63;90.62;97945.59;4981561;28;20118;-77
2023/08/09 06:06:57;;;;;;;10.57;8.13;;;;;;;15.37;90.70;97919.69;4998195;28;20073;-78
2023/08/09 06:09:23;;;;;;;14.90;9.00;;;;;;;15.85;90.35;97973.13;4981763;28;20117;-78
2023/08/09 06:11:49;;;;;;;12.45;8.60;;;;;;;15.89;90.31;97985.06;4981723;28;20034;-78
2023/08/09 06:14:14;;;;;;;8.50;7.65;;;;;;;15.87;90.62;97989.94;4981649;28;20550;-78
2023/08/09 06:16:40;;;;;;;10.07;8.55;;;;;;;15.89;90.10;97979.63;4965388;28;20034;-77
2023/08/09 06:19:05;;;;;;;10.82;7.90;;;;;;;15.83;90.29;97975.31;4997749;28;20053;-77
2023/08/09 06:21:31;;;;;;;12.30;8.57;;;;;;;15.89;89.54;97974.19;4981431;28;20128;-78
2023/08/09 06:23:56;;;;;;;10.77;8.35;;;;;;;15.81;89.92;97972.06;4997381;28;20030;-78
2023/08/09 06:26:21;;;;;;;8.90;7.10;;;;;;;15.88;90.17;97984.25;4981704;28;20040;-77
2023/08/09 06:28:48;;;;;;;7.88;7.07;;;;;;;15.99;89.78;97984.13;5001061;28;20113;-79
2023/08/09 06:31:15;;;;;;;12.02;9.07;;;;;;;16.06;90.14;98004.44;4993216;28;20776;-77
2023/08/09 06:33:42;;;;;;;9.88;8.45;;;;;;;15.92;90.48;97987.19;4980675;28;20399;-78
2023/08/09 06:36:11;;;;;;;10.52;8.13;;;;;;;15.65;90.45;97938.78;4997865;28;20084;-77
2023/08/09 06:38:37;;;;;;;12.85;7.72;;;;;;;15.95;90.09;97988.53;4974683;28;20034;-78
2023/08/09 06:41:02;;;;;;;11.88;8.55;;;;;;;16.09;90.23;98012.03;4965232;28;20044;-77
2023/08/09 06:43:28;;;;;;;11.13;8.30;;;;;;;16.03;90.18;98006.94;4981106;28;20022;-77
2023/08/09 06:45:53;;;;;;;9.90;7.75;;;;;;;16.13;90.07;98018.53;4980754;28;20049;-79
2023/08/09 06:48:19;;;;;;;9.50;7.72;;;;;;;16.06;90.41;98009.88;4980959;28;20029;-79
2023/08/09 06:50:44;;;;;;;17.65;9.75;;;;;;;15.97;90.48;98003.44;4980184;28;20076;-76
2023/08/09 06:53:10;;;;;;;9.98;8.02;;;;;;;16.18;90.07;98020.38;4979740;28;20021;-77
2023/08/09 06:55:35;;;;;;;8.98;8.07;;;;;;;16.03;89.74;97980.59;5013733;28;20121;-78
2023/08/09 06:58:01;;;;;;;10.77;7.18;;;;;;;16.25;89.59;98010.81;4970998;28;20030;-77
2023/08/09 07:00:26;;;;;;;10.98;8.07;;;;;;;16.13;89.54;97991.34;4977223;28;20708;-77
2023/08/09 07:02:51;;;;;;;12.25;7.70;;;;;;;16.30;89.42;98016.22;4978634;28;20049;-77
2023/08/09 07:05:21;;;;;;;8.57;7.28;;;;;;;16.21;90.04;98017.94;4962160;28;20472;-78
2023/08/09 07:07:47;;;;;;;13.60;7.80;;;;;;;16.36;89.78;98028.66;4995083;28;20053;-77
2023/08/09 07:10:14;;;;;;;10.13;7.22;;;;;;;16.28;89.76;98002.09;4979240;28;20769;-77
2023/08/09 07:12:39;;;;;;;12.35;7.97;;;;;;;16.53;90.04;98028.25;4978638;28;20388;-77
2023/08/09 07:15:08;;;;;;;10.60;7.57;;;;;;;16.47;89.99;98019.34;4967665;28;20042;-78
2023/08/09 07:17:34;;;;;;;12.32;7.22;;;;;;;16.66;89.65;98029.50;4985017;28;20135;-77
2023/08/09 07:20:00;;;;;;;9.13;7.90;;;;;;;16.50;89.55;97996.97;4999523;28;20038;-79
2023/08/09 07:22:25;;;;;;;11.45;7.90;;;;;;;16.49;89.33;97994.56;4984069;28;20033;-79
2023/08/09 07:24:51;;;;;;;8.48;6.95;;;;;;;16.65;89.45;98033.31;4982969;28;20141;-76
2023/08/09 07:27:16;;;;;;;11.27;7.35;;;;;;;16.59;89.10;98010.81;4988019;28;20057;-78
2023/08/09 07:29:42;;;;;;;9.73;6.68;;;;;;;16.47;89.42;97996.75;4999245;28;20510;-78
2023/08/09 07:32:07;;;;;;;9.82;6.78;;;;;;;16.74;89.18;98020.69;4985502;28;20025;-74
2023/08/09 07:34:32;;;;;;;7.90;6.63;;;;;;;16.64;89.80;98020.84;4964433;28;20037;-75
2023/08/09 07:36:58;;;;;;;10.38;6.65;;;;;;;16.74;89.50;98045.19;4980780;28;20029;-77
2023/08/09 07:39:25;;;;;;;8.52;6.75;;;;;;;16.72;89.50;98026.44;5014707;28;20077;-79
2023/08/09 07:41:50;;;;;;;8.27;6.50;;;;;;;16.68;89.13;98030.84;4999446;28;20036;-77
2023/08/09 07:44:16;;;;;;;8.35;6.50;;;;;;;16.38;89.46;98002.00;4980509;28;20033;-77
2023/08/09 07:46:42;;;;;;;6.93;6.20;;;;;;;16.79;88.85;98047.84;5003097;28;20040;-77
2023/08/09 07:49:07;;;;;;;9.13;6.28;;;;;;;16.77;88.78;98056.31;4982767;28;20038;-76
2023/08/09 07:51:32;;;;;;;8.15;6.38;;;;;;;16.75;89.01;98049.53;4998218;28;20029;-77
2023/08/09 07:53:58;;;;;;;8.65;6.32;;;;;;;16.20;88.98;97982.88;4980728;28;20045;-77
2023/08/09 07:56:23;;;;;;;9.40;6.28;;;;;;;16.49;89.11;98030.72;5014720;28;20040;-76
2023/08/09 07:58:49;;;;;;;11.80;6.65;;;;;;;16.66;89.22;98068.41;5014130;28;20037;-77
2023/08/09 08:01:14;;;;;;;9.85;7.13;;;;;;;16.67;89.12;98071.91;4996425;28;20057;-74
2023/08/09 08:03:40;;;;;;;10.00;6.95;;;;;;;16.56;89.64;98050.25;5013792;28;20041;-75
2023/08/09 08:06:05;;;;;;;9.52;7.05;;;;;;;16.69;88.93;98064.25;4996532;28;20057;-75
2023/08/09 08:08:31;;;;;;;8.35;7.18;;;;;;;16.54;89.28;98049.75;4996490;28;20046;-75
2023/08/09 08:10:57;;;;;;;9.65;7.00;;;;;;;16.53;89.39;98072.56;4982675;28;20025;-80
2023/08/09 08:13:23;;;;;;;9.88;8.13;;;;;;;16.33;89.11;98021.09;4999840;28;20041;-79
2023/08/09 08:15:50;;;;;;;13.13;8.15;;;;;;;16.45;90.01;98054.13;4967412;28;20029;-77
2023/08/09 08:18:15;;;;;;;12.57;8.27;;;;;;;16.64;90.09;98083.38;4984490;28;20037;-76
2023/08/09 08:20:41;;;;;;;11.57;8.00;;;;;;;16.45;90.46;98064.19;4983145;28;20052;-78
2023/08/09 08:23:06;;;;;;;8.75;7.88;;;;;;;16.53;90.50;98078.00;4967048;28;20177;-78
2023/08/09 08:25:31;;;;;;;13.63;9.15;;;;;;;16.80;90.31;98095.72;5016579;28;20033;-78
2023/08/09 08:27:57;;;;;;;10.50;8.10;;;;;;;16.83;90.43;98106.00;4984256;28;20036;-78
2023/08/09 08:30:22;;;;;;;12.10;7.97;;;;;;;16.99;90.17;98102.06;4966873;28;20030;-77
2023/08/09 08:32:49;;;;;;;11.10;8.50;;;;;;;17.05;90.59;98106.34;4982760;28;20109;-77
2023/08/09 08:35:19;;;;;;;8.23;7.43;;;;;;;16.99;90.43;98096.63;4998271;28;20021;-78
2023/08/09 08:37:46;;;;;;;8.45;7.13;;;;;;;16.83;90.26;98086.97;4997536;28;20034;-75
2023/08/09 08:40:17;;;;;;;8.00;7.05;;;;;;;16.89;90.19;98107.59;4996264;28;20075;-77
2023/08/09 08:42:44;;;;;;;10.23;7.88;;;;;;;17.02;89.53;98101.47;4982244;28;20056;-78
2023/08/09 08:45:11;;;;;;;9.15;7.18;;;;;;;16.99;89.64;98099.34;4981884;28;20030;-78
2023/08/09 08:47:41;;;;;;;8.90;6.80;;;;;;;17.08;89.74;98113.94;4996323;28;20038;-76
2023/08/09 08:50:08;;;;;;;8.93;6.85;;;;;;;17.00;89.46;98087.34;5013977;28;20088;-77
2023/08/09 08:52:36;;;;;;;7.95;7.15;;;;;;;17.37;88.99;98125.59;4982120;28;20018;-77
2023/08/09 08:55:03;;;;;;;8.52;6.38;;;;;;;17.24;88.47;98105.34;4982104;28;20033;-78
2023/08/09 08:57:29;;;;;;;7.80;6.68;;;;;;;17.08;88.65;98084.81;4998070;28;20033;-77
2023/08/09 08:59:55;;;;;;;8.18;6.32;;;;;;;17.33;89.35;98119.09;4981651;28;20037;-77
2023/08/09 09:02:21;;;;;;;8.90;6.32;;;;;;;17.23;89.30;98109.13;4982047;28;20484;-77
2023/08/09 09:04:46;;;;;;;6.35;5.60;;;;;;;17.24;88.53;98104.50;4981412;28;20107;-77
2023/08/09 09:07:12;;;;;;;10.13;5.65;;;;;;;17.26;88.75;98126.81;4979851;28;20588;-77
2023/08/09 09:09:57;;;;;;;8.32;5.50;;;;;;;17.42;87.83;98133.69;4996379;28;20069;-78
2023/08/09 09:12:22;;;;;;;5.68;5.00;;;;;;;17.42;87.52;98120.09;4980879;28;20175;-78
2023/08/09 09:14:51;;;;;;;5.97;4.78;;;;;;;17.36;87.44;98107.66;4980432;28;20068;-77
2023/08/09 09:17:18;;;;;;;5.13;4.63;;;;;;;17.35;87.49;98122.34;4996632;28;20117;-78
2023/08/09 09:19:44;;;;;;;5.70;4.20;;;;;;;17.49;87.84;98134.16;4979676;28;20115;-77
2023/08/09 09:22:09;;;;;;;6.07;5.07;;;;;;;17.35;87.81;98127.78;4980673;28;20034;-77
2023/08/09 09:24:35;;;;;;;4.85;4.38;;;;;;;17.26;87.29;98113.19;4964242;28;20427;-78
2023/08/09 09:27:00;;;;;;;4.68;4.22;;;;;;;17.45;87.31;98137.75;4983098;28;20124;-78
2023/08/09 09:29:33;;;;;;;6.07;4.47;;;;;;;17.47;87.24;98124.66;4997923;28;20029;-78
2023/08/09 09:31:59;;;;;;;5.07;3.85;;;;;;;17.29;87.13;98107.19;4982498;28;20053;-78
2023/08/09 09:34:29;;;;;;;3.85;3.38;;;;;;;17.60;85.84;98130.25;4981721;28;20061;-78
2023/08/09 09:36:55;;;;;;;2.85;2.65;;;;;;;17.61;84.58;98140.03;4997861;28;20551;-78
2023/08/09 09:39:21;;;;;;;2.40;2.20;;;;;;;17.64;83.57;98131.28;4981671;28;20021;-78
2023/08/09 09:41:47;;;;;;;3.30;2.50;;;;;;;17.90;83.32;98140.75;4981503;28;20381;-78
2023/08/09 09:44:23;;;;;;;2.22;2.10;;;;;;;18.02;82.63;98137.59;4997318;28;20029;-78
2023/08/09 09:46:57;;;;;;;;;;;;;;;17.86;83.07;98130.72;4965851;28;20483;-78
2023/08/09 09:49:23;;;;;;;3.95;2.30;;;;;;;18.00;83.29;98128.91;4999494;28;20015;-78
2023/08/09 09:51:49;;;;;;;2.42;2.20;;;;;;;18.00;82.38;98122.63;4982478;28;20029;-78
2023/08/09 09:54:15;;;;;;;2.92;2.70;;;;;;;18.14;82.45;98107.16;4981377;28;20061;-78
2023/08/09 09:56:40;;;;;;;4.70;2.40;;;;;;;18.52;82.67;98125.97;4981012;28;20113;-76
2023/08/09 09:59:07;;;;;;;3.80;1.90;;;;;;;18.62;81.35;98141.38;4998551;28;20481;-78
2023/08/09 10:01:35;;;;;;;4.65;2.22;;;;;;;18.89;81.73;98125.06;4998802;28;20021;-78
2023/08/09 10:04:06;;;;;;;1.70;1.60;;;;;;;19.01;79.44;98139.06;4986482;28;20045;-77
2023/08/09 10:06:34;;;;;;;3.28;1.85;;;;;;;18.91;79.81;98109.22;4983133;28;20038;-79
2023/08/09 10:09:00;;;;;;;2.55;1.73;;;;;;;18.96;79.29;98141.88;4999322;28;20032;-76
2023/08/09 10:11:28;;;;;;;3.08;1.60;;;;;;;18.75;78.53;98135.16;4998924;28;20048;-78
2023/08/09 10:13:55;;;;;;;1.83;1.70;;;;;;;18.59;78.54;98120.13;4982626;28;20416;-77
2023/08/09 10:16:22;;;;;;;1.40;1.30;;;;;;;18.81;77.21;98146.78;4998069;28;20029;-80
2023/08/09 10:18:55;;;;;;;1.70;1.60;;;;;;;18.75;78.41;98123.41;4981760;28;20037;-77
2023/08/09 10:21:21;;;;;;;1.80;1.40;;;;;;;19.05;78.10;98144.72;4982334;28;20029;-78
2023/08/09 10:24:07;;;;;;;2.00;1.40;;;;;;;19.10;78.32;98159.09;4963167;28;20026;-77
2023/08/09 10:26:33;;;;;;;1.15;1.13;;;;;;;19.18;78.47;98155.66;5002160;28;20037;-78
2023/08/09 10:29:08;;;;;;;1.65;1.55;;;;;;;19.14;78.32;98154.66;4962538;28;20356;-79
2023/08/09 10:31:48;;;;;;;2.42;1.05;;;;;;;19.22;75.89;98156.69;4995343;28;20700;-77
2023/08/09 10:34:15;;;;;;;3.03;1.20;;;;;;;19.18;74.80;98122.09;4995382;28;20033;-77
2023/08/09 10:36:40;;;;;;;0.90;0.85;;;;;;;19.17;72.58;98137.69;4995277;28;20026;-76
2023/08/09 10:39:12;;;;;;;1.30;0.70;;;;;;;19.12;71.47;98107.72;4980081;28;20575;-77
2023/08/09 10:41:38;;;;;;;1.40;0.60;;;;;;;19.06;72.02;98117.13;4996365;28;20041;-78
2023/08/09 10:44:04;;;;;;;1.00;0.80;;;;;;;19.21;71.85;98125.03;4996324;28;20029;-78
2023/08/09 10:46:33;;;;;;;0.90;0.90;;;;;;;19.16;72.47;98103.28;4980239;28;20121;-79
2023/08/09 10:49:03;;;;;;;1.23;1.00;;;;;;;19.62;72.20;98137.94;4979594;28;20025;-77
2023/08/09 10:51:29;;;;;;;1.15;1.00;;;;;;;19.78;73.00;98148.25;4980305;28;20042;-79
2023/08/09 10:53:58;;;;;;;1.50;1.20;;;;;;;19.55;67.96;98145.72;4980013;28;20160;-80
2023/08/09 10:56:37;;;;;;;1.58;0.90;;;;;;;19.72;68.01;98143.22;4980391;28;20038;-78
2023/08/09 10:59:08;;;;;;;1.42;0.80;;;;;;;19.46;68.43;98144.81;4981273;28;20041;-79
2023/08/09 11:01:34;;;;;;;1.45;0.90;;;;;;;19.11;68.02;98065.16;4981377;28;20480;-80
2023/08/09 11:04:01;;;;;;;0.90;0.88;;;;;;;19.44;65.54;98114.25;4965537;28;20026;-79
2023/08/09 11:06:38;;;;;;;0.80;0.80;;;;;;;20.01;67.44;98135.47;4965355;28;20036;-79
2023/08/09 11:09:14;;;;;;;1.10;1.00;;;;;;;20.45;65.78;98146.50;4981767;28;20037;-79
2023/08/09 11:11:41;;;;;;;1.80;0.90;;;;;;;20.23;65.99;98132.81;4969044;28;20820;-78
2023/08/09 11:14:08;;;;;;;0.85;0.75;;;;;;;20.02;67.13;98148.03;4998622;28;20057;-78
2023/08/09 11:16:34;;;;;;;1.08;0.90;;;;;;;19.89;67.50;98148.84;4981884;28;20044;-80
2023/08/09 11:19:01;;;;;;;1.05;0.85;;;;;;;20.09;67.14;98159.34;4978813;28;20046;-79
2023/08/09 11:21:27;;;;;;;2.13;0.88;;;;;;;20.17;65.97;98161.34;4965996;28;20088;-80
2023/08/09 11:23:57;;;;;;;3.25;1.17;;;;;;;20.09;65.27;98104.66;4966002;28;20022;-77
2023/08/09 11:26:23;;;;;;;2.38;0.88;;;;;;;20.41;64.35;98133.78;4982244;28;20044;-79
2023/08/09 11:28:48;;;;;;;2.53;0.80;;;;;;;20.37;64.51;98122.66;4998637;28;20026;-79
2023/08/09 11:31:13;;;;;;;1.90;0.90;;;;;;;20.27;64.69;98138.47;4965866;28;20038;-79